OIHH  Hamadan  Airport

Hamadan, Iran

Add Bookmark
ICAO OIHH
IATA HDM
Type Airport
Status Operational
Latitude
34° 52' 9" N
34.869202
Longitude
48° 33' 9" E
48.552502
Local (GMT +3.5 ) UTC
Sep 28, 2016 03:22 pm Sep 28, 2016 11:52
Sunrise-Sunset Local UTC
Begin Civil Twilight 05:42 am 02:12
Sunrise 06:07 am 02:37
Sunset 06:04 pm 14:34
End Civil Twilight 06:30 pm 15:00
VFR
VFR
MVFR
MVFR
IFR
IFR
LIFR
LIFR
Unknown
Unavailable

Current Weather

METAR Observed VFR
OIHH 281050Z 21010KT CAVOK 27/M01 Q1018 Wed, Sep 28, 2016 @ 10:50 UTC
(1 Hour, 2 Minutes ago)
Visual Flight Rules
Wind Visibility Conditions
210° at 10 knots (19 kph) 10 km or more
  • No significant weather
Temperatures Readings Precipitation
Current Temp
27°C
81°F
Dewpoint
-1°C
30°F
Humidity 16%
Altimeter 30.06" Hg
Sea Level Pressure 1,018 mb
Field Elevation
1,757 m
5,764 ft
None Recorded

Additional weather within a 92.6km radius of OIHH

Map ICAO Location
OIHM 69.5km S/SE (160°)
VFR
VFR
MVFR
MVFR
IFR
IFR
LIFR
LIFR
Unknown
Unavailable
-
-

CheckWX.com is intended as a tool to help pilots better visualize weather data. It is not intended as a substitute for an official weather briefing obtained from a Flight Service Station. CheckWX.com does not meet the FAA requirements for an official pre-flight weather briefing. Therefore, it's important that pilots still call and obtain an official FSS pre-flight weather briefing.

© 2007-2016 CheckWX.com
11:52:45 UTC